Arivaca, Arizona
Current Conditions -  °F | °C
As of 5:54 PM on Sunday 21 Dec 2014 (Local Time) from KOLS Reporting Station
Clear Clear  
Wind Chill: 13°   Ceiling: Unl
Heat Index: 13°   Visibility: 10mi
Dew Point:   Wind: 3mph
Humidity: 40%   Direction: 10°N
Pressure: 30.06"   Gusts: NA
Location:  31.57°N, 111.33°W
Report Text: KOLS 220054Z AUTO 01003KT 10SM CLR 13/00 A3006 RMK AO2 SLP158 T01330000
Loading
Personal Weather Stations






























Interactive Weather Map New forecast layout! Learn more

10-Day Weather Forecast

Advertisements
Track Severe Weather on mobile